Time;durP1;ratioP1;P1;durP2;ratioP2;P2;SDS_P1;SDS_P2;PMS_P1;PMS_P2;Temp;Humidity;BMP_temperature;BMP_pressure;BME280_temperature;BME280_humidity;BME280_pressure;Samples;Min_cycle;Max_cycle;Signal;HPM_P1;HPM_P2
2022/04/23 00:01:33;;;;;;;15.37;14.07;;;;;;;;;;5054487;28;20462;-68
2022/04/23 00:03:59;;;;;;;17.20;15.50;;;;;;;;;;5054602;28;20894;-68
2022/04/23 00:06:25;;;;;;;16.73;15.13;;;;;;;;;;5055678;28;20422;-68
2022/04/23 00:08:51;;;;;;;16.50;14.83;;;;;;;;;;5055761;28;20403;-69
2022/04/23 00:11:17;;;;;;;14.87;13.57;;;;;;;;;;5055610;28;20415;-69
2022/04/23 00:13:43;;;;;;;17.87;16.17;;;;;;;;;;5055586;28;20434;-68
2022/04/23 00:16:10;;;;;;;17.80;16.07;;;;;;;;;;5055524;28;20422;-68
2022/04/23 00:18:36;;;;;;;17.23;15.63;;;;;;;;;;5055396;28;20459;-68
2022/04/23 00:21:04;;;;;;;16.60;15.20;;;;;;;;;;5055443;28;20491;-68
2022/04/23 00:23:31;;;;;;;20.13;14.20;;;;;;;;;;5055450;28;20777;-69
2022/04/23 00:25:58;;;;;;;15.97;14.40;;;;;;;;;;5055360;28;20422;-68
2022/04/23 00:28:24;;;;;;;16.23;14.83;;;;;;;;;;5055372;28;20411;-68
2022/04/23 00:30:52;;;;;;;16.03;14.53;;;;;;;;;;5055275;28;20816;-69
2022/04/23 00:33:18;;;;;;;17.17;15.47;;;;;;;;;;5055280;28;20402;-68
2022/04/23 00:35:45;;;;;;;16.70;14.90;;;;;;;;;;5055183;28;20399;-68
2022/04/23 00:38:11;;;;;;;15.23;13.73;;;;;;;;;;5055202;28;20773;-71
2022/04/23 00:40:39;;;;;;;16.63;14.93;;;;;;;;;;5054885;28;20962;-69
2022/04/23 00:43:10;;;;;;;15.20;13.70;;;;;;;;;;5055045;28;20768;-68
2022/04/23 00:45:37;;;;;;;16.03;14.53;;;;;;;;;;5055004;28;20415;-70
2022/04/23 00:48:03;;;;;;;16.10;14.50;;;;;;;;;;5054643;28;20952;-68
2022/04/23 00:50:29;;;;;;;15.43;14.07;;;;;;;;;;5054313;28;20458;-70
2022/04/23 00:53:01;;;;;;;18.60;13.97;;;;;;;;;;5054893;28;20506;-71
2022/04/23 00:55:28;;;;;;;17.20;15.53;;;;;;;;;;5054758;28;20407;-71
2022/04/23 00:57:54;;;;;;;18.13;15.37;;;;;;;;;;5054060;28;20932;-69
2022/04/23 01:00:21;;;;;;;15.60;14.10;;;;;;;;;;5054755;28;20462;-69
2022/04/23 01:02:47;;;;;;;15.47;13.97;;;;;;;;;;5054646;28;20867;-68
2022/04/23 01:05:14;;;;;;;16.20;14.57;;;;;;;;;;5054944;28;20501;-68
2022/04/23 01:07:44;;;;;;;15.87;14.47;;;;;;;;;;5054924;28;20399;-69
2022/04/23 01:10:11;;;;;;;15.47;14.17;;;;;;;;;;5054722;28;20859;-68
2022/04/23 01:12:38;;;;;;;16.27;14.73;;;;;;;;;;5054657;28;20403;-68
2022/04/23 01:15:10;;;;;;;15.13;13.63;;;;;;;;;;5053196;28;20431;-68
2022/04/23 01:17:37;;;;;;;14.80;13.27;;;;;;;;;;5054407;28;20826;-68
2022/04/23 01:20:10;;;;;;;16.03;14.63;;;;;;;;;;5054299;28;20475;-68
2022/04/23 01:22:36;;;;;;;16.83;15.27;;;;;;;;;;5054309;28;20403;-68
2022/04/23 01:25:05;;;;;;;15.13;13.80;;;;;;;;;;5054123;28;20517;-68
2022/04/23 01:27:32;;;;;;;15.33;13.73;;;;;;;;;;5054214;28;20438;-68
2022/04/23 01:29:58;;;;;;;15.23;13.73;;;;;;;;;;5054155;28;20407;-69
2022/04/23 01:32:24;;;;;;;19.97;14.10;;;;;;;;;;5054100;28;20438;-68
2022/04/23 01:34:50;;;;;;;15.23;13.70;;;;;;;;;;5054079;28;20406;-68
2022/04/23 01:37:19;;;;;;;16.90;14.63;;;;;;;;;;5052789;28;20419;-68
2022/04/23 01:39:47;;;;;;;16.10;14.40;;;;;;;;;;5052585;28;20482;-69
2022/04/23 01:42:13;;;;;;;17.17;15.00;;;;;;;;;;5053741;28;20577;-69
2022/04/23 01:44:39;;;;;;;16.10;14.70;;;;;;;;;;5052587;28;20934;-68
2022/04/23 01:47:05;;;;;;;15.73;14.40;;;;;;;;;;5053764;28;20415;-69
2022/04/23 01:49:31;;;;;;;16.43;14.90;;;;;;;;;;5053842;28;20486;-69
2022/04/23 01:51:57;;;;;;;16.30;14.90;;;;;;;;;;5053795;28;20496;-68
2022/04/23 01:54:23;;;;;;;21.00;14.47;;;;;;;;;;5053718;28;20399;-69
2022/04/23 01:56:49;;;;;;;16.20;14.80;;;;;;;;;;5053704;28;20430;-68
2022/04/23 01:59:15;;;;;;;15.80;14.43;;;;;;;;;;5053587;28;20554;-69
2022/04/23 02:01:41;;;;;;;15.20;13.90;;;;;;;;;;5053460;28;20494;-68
2022/04/23 02:04:08;;;;;;;15.40;14.03;;;;;;;;;;5053593;28;20399;-68
2022/04/23 02:06:34;;;;;;;15.90;14.50;;;;;;;;;;5053541;28;20395;-69
2022/04/23 02:09:01;;;;;;;19.27;14.00;;;;;;;;;;5053781;28;20438;-68
2022/04/23 02:11:27;;;;;;;14.70;13.50;;;;;;;;;;5053393;28;20792;-68
2022/04/23 02:13:53;;;;;;;16.00;14.37;;;;;;;;;;5053464;28;20472;-69
2022/04/23 02:16:19;;;;;;;20.00;14.73;;;;;;;;;;5053662;28;20817;-68
2022/04/23 02:18:45;;;;;;;16.40;14.90;;;;;;;;;;5052039;28;20506;-68
2022/04/23 02:21:11;;;;;;;16.73;15.13;;;;;;;;;;5053305;28;20407;-68
2022/04/23 02:23:37;;;;;;;15.83;14.33;;;;;;;;;;5053306;28;20411;-68
2022/04/23 02:26:05;;;;;;;18.17;15.40;;;;;;;;;;5053286;28;20411;-68
2022/04/23 02:28:31;;;;;;;15.43;14.00;;;;;;;;;;5053287;28;20418;-68
2022/04/23 02:30:57;;;;;;;15.20;13.80;;;;;;;;;;5053221;28;20411;-69
2022/04/23 02:33:23;;;;;;;19.90;15.47;;;;;;;;;;5052001;28;20430;-69
2022/04/23 02:35:50;;;;;;;15.60;14.20;;;;;;;;;;5053146;28;20899;-69
2022/04/23 02:38:17;;;;;;;14.90;13.60;;;;;;;;;;5053158;28;20389;-68
2022/04/23 02:40:43;;;;;;;16.63;14.93;;;;;;;;;;5052727;28;20642;-68
2022/04/23 02:43:12;;;;;;;16.73;15.27;;;;;;;;;;5053102;28;20403;-68
2022/04/23 02:45:38;;;;;;;16.47;14.13;;;;;;;;;;5053142;28;20414;-68
2022/04/23 02:48:05;;;;;;;16.10;14.50;;;;;;;;;;5053077;28;20437;-69
2022/04/23 02:50:31;;;;;;;16.63;14.83;;;;;;;;;;5053126;28;20541;-68
2022/04/23 02:52:57;;;;;;;17.40;15.70;;;;;;;;;;5053082;28;20410;-69
2022/04/23 02:55:24;;;;;;;17.80;15.17;;;;;;;;;;5053036;28;20789;-67
2022/04/23 02:57:50;;;;;;;18.50;14.53;;;;;;;;;;5051683;28;20509;-68
2022/04/23 03:00:16;;;;;;;16.10;14.70;;;;;;;;;;5052801;28;20910;-69
2022/04/23 03:02:44;;;;;;;17.13;15.03;;;;;;;;;;5053187;28;20403;-68
2022/04/23 03:05:11;;;;;;;18.33;16.53;;;;;;;;;;5053083;28;20411;-69
2022/04/23 03:07:37;;;;;;;18.50;16.67;;;;;;;;;;5052992;28;20404;-68
2022/04/23 03:10:04;;;;;;;22.00;17.20;;;;;;;;;;5052801;28;20419;-68
2022/04/23 03:12:30;;;;;;;19.30;17.23;;;;;;;;;;5054226;28;20441;-68
2022/04/23 03:14:56;;;;;;;19.30;17.40;;;;;;;;;;5057061;28;20408;-68
2022/04/23 03:17:22;;;;;;;19.40;17.37;;;;;;;;;;5056722;28;20407;-68
2022/04/23 03:19:48;;;;;;;18.77;16.87;;;;;;;;;;5056585;28;20871;-69
2022/04/23 03:22:17;;;;;;;17.07;15.60;;;;;;;;;;5056603;28;20486;-68
2022/04/23 03:24:44;;;;;;;18.03;16.33;;;;;;;;;;5056461;28;20422;-69
2022/04/23 03:27:10;;;;;;;16.10;14.67;;;;;;;;;;5056462;28;20413;-69
2022/04/23 03:29:36;;;;;;;19.47;15.37;;;;;;;;;;5056419;28;20513;-68
2022/04/23 03:32:02;;;;;;;17.13;15.47;;;;;;;;;;5056415;28;20584;-69
2022/04/23 03:34:28;;;;;;;17.67;15.97;;;;;;;;;;5056392;28;20382;-69
2022/04/23 03:36:54;;;;;;;16.97;15.40;;;;;;;;;;5055056;28;20423;-69
2022/04/23 03:39:20;;;;;;;17.63;14.43;;;;;;;;;;5056090;28;20556;-69
2022/04/23 03:41:46;;;;;;;21.20;16.30;;;;;;;;;;5056069;28;20481;-69
2022/04/23 03:44:12;;;;;;;16.33;14.73;;;;;;;;;;5056427;28;20386;-71
2022/04/23 03:46:38;;;;;;;27.93;15.50;;;;;;;;;;5056225;28;20398;-72
2022/04/23 03:49:04;;;;;;;16.33;14.93;;;;;;;;;;5056119;28;20901;-71
2022/04/23 03:51:30;;;;;;;17.93;16.23;;;;;;;;;;5054731;28;20423;-69
2022/04/23 03:53:56;;;;;;;19.17;17.20;;;;;;;;;;5055963;28;20389;-69
2022/04/23 03:56:24;;;;;;;18.30;16.40;;;;;;;;;;5055905;28;20381;-69
2022/04/23 03:58:51;;;;;;;18.80;17.00;;;;;;;;;;5055810;28;20573;-69
2022/04/23 04:01:17;;;;;;;18.37;16.50;;;;;;;;;;5055857;28;20537;-69
2022/04/23 04:03:43;;;;;;;18.37;16.57;;;;;;;;;;5055784;28;20846;-69
2022/04/23 04:06:09;;;;;;;25.60;18.37;;;;;;;;;;5055900;28;20813;-70
2022/04/23 04:08:35;;;;;;;23.47;18.87;;;;;;;;;;5055754;28;20411;-70
2022/04/23 04:11:01;;;;;;;19.23;17.20;;;;;;;;;;5055651;28;20426;-72
2022/04/23 04:13:28;;;;;;;19.90;17.97;;;;;;;;;;5054347;28;20949;-72
2022/04/23 04:15:54;;;;;;;23.03;18.27;;;;;;;;;;5055792;28;20481;-72
2022/04/23 04:18:20;;;;;;;19.90;17.80;;;;;;;;;;5055550;28;20889;-72
2022/04/23 04:20:50;;;;;;;18.53;16.77;;;;;;;;;;5055349;28;20437;-71
2022/04/23 04:23:16;;;;;;;19.10;17.10;;;;;;;;;;5055600;28;20762;-72
2022/04/23 04:25:43;;;;;;;20.23;18.27;;;;;;;;;;5055274;28;20427;-72
2022/04/23 04:28:09;;;;;;;18.30;16.50;;;;;;;;;;5055308;28;20395;-69
2022/04/23 04:33:22;;;;;;;19.60;17.70;;;;;;;;;;5055152;28;20398;-70
2022/04/23 04:35:48;;;;;;;19.83;17.77;;;;;;;;;;5055139;28;20430;-69
2022/04/23 04:38:13;;;;;;;18.60;16.13;;;;;;;;;;5055090;28;20406;-68
2022/04/23 04:40:40;;;;;;;17.60;16.00;;;;;;;;;;5054643;28;20494;-69
2022/04/23 04:43:07;;;;;;;18.43;16.70;;;;;;;;;;5055216;28;20403;-69
2022/04/23 04:45:33;;;;;;;20.13;16.77;;;;;;;;;;5054957;28;20886;-69
2022/04/23 04:47:59;;;;;;;18.77;16.40;;;;;;;;;;5055163;28;20464;-69
2022/04/23 04:50:25;;;;;;;21.90;17.90;;;;;;;;;;5055187;28;20404;-69
2022/04/23 04:52:51;;;;;;;21.20;19.10;;;;;;;;;;5054904;28;20858;-69
2022/04/23 04:55:17;;;;;;;28.63;17.27;;;;;;;;;;5054999;28;20430;-69
2022/04/23 04:57:43;;;;;;;18.70;16.77;;;;;;;;;;5054848;28;20839;-69
2022/04/23 05:00:10;;;;;;;19.00;17.00;;;;;;;;;;5054678;28;20478;-71
2022/04/23 05:02:36;;;;;;;18.80;17.00;;;;;;;;;;5054768;28;20425;-73
2022/04/23 05:05:02;;;;;;;17.80;16.20;;;;;;;;;;5054632;28;20437;-71
2022/04/23 05:07:28;;;;;;;19.50;17.27;;;;;;;;;;5054551;28;20407;-72
2022/04/23 05:09:53;;;;;;;21.40;19.23;;;;;;;;;;5054488;28;20418;-72
2022/04/23 05:12:19;;;;;;;22.63;17.10;;;;;;;;;;5054505;28;20806;-72
2022/04/23 05:14:45;;;;;;;19.20;17.30;;;;;;;;;;5054419;28;20418;-72
2022/04/23 05:17:11;;;;;;;19.70;17.70;;;;;;;;;;5054439;28;20403;-71
2022/04/23 05:19:37;;;;;;;19.20;17.30;;;;;;;;;;5054299;28;20457;-72
2022/04/23 05:22:03;;;;;;;19.77;17.87;;;;;;;;;;5054223;28;20411;-71
2022/04/23 05:24:29;;;;;;;19.53;17.73;;;;;;;;;;5054202;28;20411;-70
2022/04/23 05:26:55;;;;;;;22.27;19.87;;;;;;;;;;5054148;28;20415;-70
2022/04/23 05:29:21;;;;;;;22.40;20.20;;;;;;;;;;5054134;28;20896;-69
2022/04/23 05:31:47;;;;;;;23.00;20.80;;;;;;;;;;5054052;28;20426;-70
2022/04/23 05:34:13;;;;;;;23.33;20.73;;;;;;;;;;5054099;28;20395;-70
2022/04/23 05:36:39;;;;;;;35.30;25.17;;;;;;;;;;5053577;28;20875;-68
2022/04/23 05:39:05;;;;;;;32.73;29.27;;;;;;;;;;5053880;28;20470;-68
2022/04/23 05:41:31;;;;;;;23.20;20.73;;;;;;;;;;5053673;28;20498;-69
2022/04/23 05:43:58;;;;;;;23.23;20.40;;;;;;;;;;5053877;28;20453;-69
2022/04/23 05:46:24;;;;;;;21.77;19.60;;;;;;;;;;5053790;28;20929;-70
2022/04/23 05:48:50;;;;;;;22.47;20.23;;;;;;;;;;5053787;28;20920;-71
2022/04/23 05:51:16;;;;;;;24.70;20.53;;;;;;;;;;5053802;28;20403;-70
2022/04/23 05:53:43;;;;;;;21.80;19.70;;;;;;;;;;5053743;28;20411;-69
2022/04/23 05:56:09;;;;;;;22.80;19.63;;;;;;;;;;5053591;28;20414;-68
2022/04/23 05:58:36;;;;;;;22.73;19.00;;;;;;;;;;5053508;28;20400;-70
2022/04/23 06:01:02;;;;;;;19.83;17.93;;;;;;;;;;5053805;28;20525;-68
2022/04/23 06:03:28;;;;;;;23.70;20.03;;;;;;;;;;5053580;28;20468;-68
2022/04/23 06:05:54;;;;;;;23.60;21.20;;;;;;;;;;5052291;28;20506;-68
2022/04/23 06:08:20;;;;;;;24.43;21.37;;;;;;;;;;5053572;28;20407;-68
2022/04/23 06:10:46;;;;;;;22.57;20.10;;;;;;;;;;5053583;28;20548;-68
2022/04/23 06:13:12;;;;;;;23.23;20.10;;;;;;;;;;5053584;28;20912;-69
2022/04/23 06:15:38;;;;;;;23.10;20.70;;;;;;;;;;5053576;28;20457;-69
2022/04/23 06:18:04;;;;;;;26.33;23.53;;;;;;;;;;5053448;28;20890;-69
2022/04/23 06:20:30;;;;;;;27.00;23.83;;;;;;;;;;5053373;28;20466;-69
2022/04/23 06:22:56;;;;;;;25.87;23.17;;;;;;;;;;5053510;28;20407;-70
2022/04/23 06:25:22;;;;;;;30.63;27.30;;;;;;;;;;5053345;28;20415;-70
2022/04/23 06:27:50;;;;;;;24.57;22.07;;;;;;;;;;5053578;28;20406;-70
2022/04/23 06:30:16;;;;;;;31.53;25.13;;;;;;;;;;5053362;28;20399;-70
2022/04/23 06:32:42;;;;;;;31.43;23.77;;;;;;;;;;5053299;28;20410;-69
2022/04/23 06:35:09;;;;;;;26.03;23.33;;;;;;;;;;5053305;28;20404;-69
2022/04/23 06:37:39;;;;;;;26.27;23.33;;;;;;;;;;5053224;28;20406;-70
2022/04/23 06:40:06;;;;;;;26.67;22.63;;;;;;;;;;5052984;28;20471;-69
2022/04/23 06:42:32;;;;;;;27.60;24.07;;;;;;;;;;5051915;28;20431;-69
2022/04/23 06:44:58;;;;;;;26.67;23.77;;;;;;;;;;5053196;28;20430;-69
2022/04/23 06:47:24;;;;;;;27.40;23.00;;;;;;;;;;5054632;28;20406;-69
2022/04/23 06:49:50;;;;;;;26.70;23.90;;;;;;;;;;5057387;28;20415;-70
2022/04/23 06:52:15;;;;;;;27.93;24.93;;;;;;;;;;5057244;28;20744;-70
2022/04/23 06:54:41;;;;;;;27.60;24.70;;;;;;;;;;5057174;28;20484;-70
2022/04/23 06:57:07;;;;;;;28.27;25.17;;;;;;;;;;5057185;28;20412;-67
2022/04/23 06:59:33;;;;;;;27.77;24.80;;;;;;;;;;5057046;28;20561;-68
2022/04/23 07:02:02;;;;;;;29.93;26.53;;;;;;;;;;5057034;28;20411;-70
2022/04/23 07:04:29;;;;;;;30.10;25.27;;;;;;;;;;5057317;28;20421;-70
2022/04/23 07:06:55;;;;;;;27.70;24.10;;;;;;;;;;5057004;28;20439;-68
2022/04/23 07:09:20;;;;;;;31.53;26.67;;;;;;;;;;5056881;28;20438;-69
2022/04/23 07:11:47;;;;;;;28.83;25.83;;;;;;;;;;5056893;28;20464;-66
2022/04/23 07:14:13;;;;;;;34.27;29.10;;;;;;;;;;5057095;28;20426;-67
2022/04/23 07:16:40;;;;;;;30.10;25.57;;;;;;;;;;5057006;28;20407;-66
2022/04/23 07:19:07;;;;;;;31.70;28.23;;;;;;;;;;5056779;28;20465;-67
2022/04/23 07:21:34;;;;;;;32.47;26.87;;;;;;;;;;5056743;28;20414;-66
2022/04/23 07:24:04;;;;;;;29.67;26.47;;;;;;;;;;5056645;28;20398;-66
2022/04/23 07:26:31;;;;;;;30.43;26.67;;;;;;;;;;5056561;28;20430;-68
2022/04/23 07:28:57;;;;;;;29.17;26.00;;;;;;;;;;5056615;28;20812;-69
2022/04/23 07:31:24;;;;;;;32.87;27.33;;;;;;;;;;5056493;28;20491;-67
2022/04/23 07:39:19;;;;;;;28.37;25.40;;;;;;;;;;5056300;28;20465;-67
2022/04/23 07:41:45;;;;;;;30.10;25.90;;;;;;;;;;5055248;28;20463;-66
2022/04/23 07:44:11;;;;;;;29.47;26.37;;;;;;;;;;5055074;28;20417;-66
2022/04/23 07:46:39;;;;;;;45.03;32.90;;;;;;;;;;5055107;28;20437;-70
2022/04/23 07:49:05;;;;;;;34.07;29.00;;;;;;;;;;5054928;28;20395;-69
2022/04/23 07:51:31;;;;;;;33.33;28.37;;;;;;;;;;5054928;28;20407;-69
2022/04/23 07:53:57;;;;;;;28.63;25.63;;;;;;;;;;5054884;28;20399;-68
2022/04/23 07:56:23;;;;;;;29.90;26.70;;;;;;;;;;5054773;28;20422;-71
2022/04/23 07:58:49;;;;;;;31.20;26.27;;;;;;;;;;5054252;28;20435;-68
2022/04/23 08:01:15;;;;;;;27.97;24.07;;;;;;;;;;5054761;28;20446;-67
2022/04/23 08:03:41;;;;;;;30.50;25.30;;;;;;;;;;5054967;28;20469;-66
2022/04/23 08:06:10;;;;;;;30.30;25.17;;;;;;;;;;5054639;28;20414;-71
2022/04/23 08:08:35;;;;;;;36.50;26.10;;;;;;;;;;5054507;28;20395;-72
2022/04/23 08:11:01;;;;;;;36.53;25.70;;;;;;;;;;5054658;28;20518;-70
2022/04/23 08:13:28;;;;;;;35.03;25.80;;;;;;;;;;5054584;28;20445;-71
2022/04/23 08:15:54;;;;;;;31.43;26.60;;;;;;;;;;5054772;28;20422;-66
2022/04/23 08:18:20;;;;;;;30.13;26.67;;;;;;;;;;5054391;28;20411;-66
2022/04/23 08:20:46;;;;;;;31.30;27.27;;;;;;;;;;5054622;28;20587;-66
2022/04/23 08:23:12;;;;;;;32.37;27.47;;;;;;;;;;5054364;28;20406;-66
2022/04/23 08:25:38;;;;;;;35.40;28.00;;;;;;;;;;5054509;28;20419;-65
2022/04/23 08:30:49;;;;;;;34.03;29.30;;;;;;;;;;5054275;28;20418;-69
2022/04/23 08:33:15;;;;;;;31.17;27.97;;;;;;;;;;5054227;28;20395;-70
2022/04/23 08:35:41;;;;;;;30.87;27.53;;;;;;;;;;5052933;28;20509;-67
2022/04/23 08:38:08;;;;;;;30.00;26.70;;;;;;;;;;5054419;28;20406;-69
2022/04/23 08:40:40;;;;;;;30.50;27.30;;;;;;;;;;5048745;28;137463;-69
2022/04/23 08:43:06;;;;;;;32.43;28.27;;;;;;;;;;5054592;28;20411;-68
2022/04/23 08:45:33;;;;;;;32.27;28.30;;;;;;;;;;5055011;28;20411;-69
2022/04/23 08:48:00;;;;;;;43.70;35.77;;;;;;;;;;5055039;28;20406;-71
2022/04/23 08:50:26;;;;;;;63.17;49.20;;;;;;;;;;5055088;28;20403;-68
2022/04/23 08:52:57;;;;;;;33.60;29.07;;;;;;;;;;5054995;28;20431;-69
2022/04/23 08:55:26;;;;;;;35.00;30.80;;;;;;;;;;5054847;28;20427;-69
2022/04/23 08:57:52;;;;;;;30.30;26.93;;;;;;;;;;5054904;28;20950;-68
2022/04/23 09:00:18;;;;;;;32.60;29.20;;;;;;;;;;5054691;28;20553;-73
2022/04/23 09:02:44;;;;;;;34.20;30.07;;;;;;;;;;5054793;28;20407;-71
2022/04/23 09:05:13;;;;;;;32.20;28.70;;;;;;;;;;5054985;28;20407;-72
2022/04/23 09:07:40;;;;;;;29.60;26.50;;;;;;;;;;5054922;28;20410;-68
2022/04/23 09:10:06;;;;;;;30.70;27.40;;;;;;;;;;5053749;28;20453;-67
2022/04/23 09:12:32;;;;;;;33.03;27.73;;;;;;;;;;5054509;28;20545;-67
2022/04/23 09:23:43;;;;;;;29.43;25.67;;;;;;;;;;5054516;28;20456;-72
2022/04/23 09:26:19;;;;;;;29.50;24.07;;;;;;;;;;5054439;28;20450;-71
2022/04/23 09:28:50;;;;;;;26.63;24.00;;;;;;;;;;5054427;28;20481;-73
2022/04/23 09:31:16;;;;;;;27.00;23.97;;;;;;;;;;5054408;28;20394;-70
2022/04/23 09:33:43;;;;;;;27.47;24.57;;;;;;;;;;5054261;28;20399;-66
2022/04/23 09:36:09;;;;;;;30.27;25.10;;;;;;;;;;5054226;28;20403;-67
2022/04/23 09:38:35;;;;;;;28.13;24.40;;;;;;;;;;5053985;28;20404;-67
2022/04/23 09:41:15;;;;;;;27.20;24.40;;;;;;;;;;5053992;28;20512;-68
2022/04/23 09:43:42;;;;;;;31.80;25.13;;;;;;;;;;5052622;28;20986;-68
2022/04/23 09:46:09;;;;;;;27.50;24.77;;;;;;;;;;5054062;28;20784;-68
2022/04/23 09:48:39;;;;;;;27.87;25.00;;;;;;;;;;5054140;28;20436;-68
2022/04/23 09:51:05;;;;;;;31.77;24.60;;;;;;;;;;5052745;28;20407;-68
2022/04/23 09:53:31;;;;;;;27.00;24.20;;;;;;;;;;5053855;28;20414;-68
2022/04/23 09:56:05;;;;;;;26.73;24.03;;;;;;;;;;5053754;28;20418;-68
2022/04/23 09:58:31;;;;;;;28.90;24.77;;;;;;;;;;5053733;28;20403;-71
2022/04/23 10:00:58;;;;;;;28.00;23.63;;;;;;;;;;5053669;28;20467;-72
2022/04/23 10:03:29;;;;;;;26.57;23.77;;;;;;;;;;5053889;28;20457;-71
2022/04/23 10:05:55;;;;;;;27.70;24.97;;;;;;;;;;5053641;28;20448;-72
2022/04/23 10:08:23;;;;;;;43.60;24.03;;;;;;;;;;5053570;28;20461;-71
2022/04/23 10:11:08;;;;;;;25.03;22.30;;;;;;;;;;5053604;28;20458;-71
2022/04/23 10:13:34;;;;;;;31.03;24.83;;;;;;;;;;5052184;28;20423;-70
2022/04/23 10:16:03;;;;;;;31.47;23.90;;;;;;;;;;5053510;28;20423;-71
2022/04/23 10:18:29;;;;;;;27.27;23.30;;;;;;;;;;5053336;28;20411;-70
2022/04/23 10:20:58;;;;;;;26.73;23.93;;;;;;;;;;5053220;28;20475;-71
2022/04/23 10:23:40;;;;;;;24.80;22.17;;;;;;;;;;5053379;28;20399;-71
2022/04/23 10:26:25;;;;;;;27.03;24.30;;;;;;;;;;5053443;28;20419;-71
2022/04/23 10:28:52;;;;;;;28.10;24.53;;;;;;;;;;5053333;28;20416;-71
2022/04/23 10:31:18;;;;;;;30.53;25.27;;;;;;;;;;5053299;28;20403;-70
2022/04/23 10:33:52;;;;;;;26.17;23.57;;;;;;;;;;5053279;28;20403;-70
2022/04/23 10:36:18;;;;;;;28.03;25.20;;;;;;;;;;5053280;28;20397;-68
2022/04/23 10:38:51;;;;;;;26.87;24.17;;;;;;;;;;5053058;28;20403;-71
2022/04/23 10:41:17;;;;;;;30.50;24.63;;;;;;;;;;5052917;28;20478;-70
2022/04/23 10:43:47;;;;;;;27.60;24.60;;;;;;;;;;5053048;28;20461;-69
2022/04/23 10:46:32;;;;;;;26.63;23.03;;;;;;;;;;5053170;28;20428;-70
2022/04/23 10:49:13;;;;;;;26.20;23.70;;;;;;;;;;5053058;28;20427;-70
2022/04/23 10:51:46;;;;;;;32.67;24.50;;;;;;;;;;5053056;28;20913;-71
2022/04/23 10:54:12;;;;;;;25.30;22.70;;;;;;;;;;5053074;28;20418;-69
2022/04/23 10:56:38;;;;;;;28.30;23.87;;;;;;;;;;5051754;28;20800;-71
2022/04/23 10:59:04;;;;;;;27.40;23.90;;;;;;;;;;5053013;28;20471;-71
2022/04/23 11:01:31;;;;;;;28.00;25.17;;;;;;;;;;5053034;28;20420;-72
2022/04/23 11:03:57;;;;;;;27.07;24.37;;;;;;;;;;5052905;28;20725;-69
2022/04/23 11:12:18;;;;;;;29.40;25.70;;;;;;;;;;5052738;28;20901;-69
2022/04/23 11:14:45;;;;;;;34.90;27.10;;;;;;;;;;5052670;28;20411;-69
2022/04/23 11:17:14;;;;;;;29.23;26.20;;;;;;;;;;5052709;28;20396;-72
2022/04/23 11:19:41;;;;;;;33.17;26.67;;;;;;;;;;5052800;28;20519;-70
2022/04/23 11:22:09;;;;;;;29.70;26.60;;;;;;;;;;5052859;28;20429;-72
2022/04/23 11:24:35;;;;;;;29.27;26.20;;;;;;;;;;5052750;28;20870;-72
2022/04/23 11:27:01;;;;;;;29.90;26.90;;;;;;;;;;5052795;28;20957;-72
2022/04/23 11:29:27;;;;;;;28.60;25.80;;;;;;;;;;5052652;28;20405;-72
2022/04/23 11:31:56;;;;;;;31.33;28.17;;;;;;;;;;5052850;28;20408;-72
2022/04/23 11:34:22;;;;;;;31.67;28.27;;;;;;;;;;5055307;28;20396;-71
2022/04/23 11:36:49;;;;;;;32.23;27.40;;;;;;;;;;5056199;28;20828;-70
2022/04/23 11:39:15;;;;;;;31.50;27.30;;;;;;;;;;5056391;28;20459;-70
2022/04/23 11:41:42;;;;;;;29.70;26.33;;;;;;;;;;5056388;28;20499;-71
2022/04/23 11:44:14;;;;;;;30.30;26.90;;;;;;;;;;5056214;28;20397;-70
2022/04/23 11:46:41;;;;;;;34.17;28.20;;;;;;;;;;5056363;28;20428;-70
2022/04/23 11:49:07;;;;;;;28.50;25.60;;;;;;;;;;5056069;28;20400;-69
2022/04/23 11:51:32;;;;;;;29.80;26.67;;;;;;;;;;5056241;28;20502;-75
2022/04/23 11:53:59;;;;;;;37.47;30.53;;;;;;;;;;5055992;28;20411;-76
2022/04/23 11:56:32;;;;;;;30.43;27.20;;;;;;;;;;5054750;28;20441;-69
2022/04/23 11:59:03;;;;;;;33.47;26.40;;;;;;;;;;5055802;28;20431;-76
2022/04/23 12:01:29;;;;;;;29.73;26.60;;;;;;;;;;5055903;28;20499;-75
2022/04/23 12:03:56;;;;;;;30.90;26.13;;;;;;;;;;5054613;28;20425;-75
2022/04/23 12:06:22;;;;;;;35.93;28.00;;;;;;;;;;5055701;28;20413;-75
2022/04/23 12:08:49;;;;;;;30.53;27.40;;;;;;;;;;5056026;28;20409;-75
2022/04/23 12:11:22;;;;;;;27.90;25.07;;;;;;;;;;5055897;28;20895;-75
2022/04/23 12:13:48;;;;;;;27.97;24.97;;;;;;;;;;5055618;28;20411;-75
2022/04/23 12:16:17;;;;;;;41.73;26.03;;;;;;;;;;5055548;28;20501;-73
2022/04/23 12:18:43;;;;;;;29.33;26.20;;;;;;;;;;5055448;28;20768;-73
2022/04/23 12:21:09;;;;;;;31.63;25.37;;;;;;;;;;5054250;28;20455;-74
2022/04/23 12:23:41;;;;;;;32.13;26.40;;;;;;;;;;5054142;28;21695;-72
2022/04/23 12:26:08;;;;;;;36.33;28.30;;;;;;;;;;5052134;28;20425;-73
2022/04/23 12:42:24;;;;;;;38.27;34.17;;;;;;;;;;5054767;28;20492;-73
2022/04/23 12:44:52;;;;;;;32.60;26.80;;;;;;;;;;5053711;28;20398;-72
2022/04/23 12:47:28;;;;;;;29.40;26.27;;;;;;;;;;5055142;28;20424;-74
2022/04/23 12:50:00;;;;;;;31.50;28.10;;;;;;;;;;5054892;28;20412;-74
2022/04/23 12:52:27;;;;;;;35.00;27.60;;;;;;;;;;5054869;28;20405;-70
2022/04/23 12:55:12;;;;;;;28.33;25.47;;;;;;;;;;5054688;28;20414;-70
2022/04/23 12:57:39;;;;;;;29.73;25.80;;;;;;;;;;5054762;28;20461;-71
2022/04/23 13:00:05;;;;;;;29.80;26.80;;;;;;;;;;5054845;28;20550;-70
2022/04/23 13:02:35;;;;;;;29.73;26.73;;;;;;;;;;5054811;28;20415;-70
2022/04/23 13:05:02;;;;;;;30.20;26.37;;;;;;;;;;5054950;28;20420;-69
2022/04/23 13:10:12;;;;;;;30.47;26.67;;;;;;;;;;5054706;28;20414;-71
2022/04/23 13:12:38;;;;;;;44.70;26.70;;;;;;;;;;5054766;28;20406;-71
2022/04/23 13:15:04;;;;;;;30.70;26.53;;;;;;;;;;5054492;28;20410;-72
2022/04/23 13:17:31;;;;;;;28.80;25.90;;;;;;;;;;5054491;28;20470;-70
2022/04/23 13:19:56;;;;;;;40.70;26.30;;;;;;;;;;5054409;28;20506;-72
2022/04/23 13:22:22;;;;;;;29.60;26.77;;;;;;;;;;5054295;28;20492;-72
2022/04/23 13:24:48;;;;;;;29.20;26.13;;;;;;;;;;5053067;28;20852;-72
2022/04/23 13:27:15;;;;;;;66.83;53.60;;;;;;;;;;5054400;28;20465;-71
2022/04/23 13:29:42;;;;;;;36.70;28.73;;;;;;;;;;5054535;28;20422;-70
2022/04/23 13:32:08;;;;;;;30.23;27.13;;;;;;;;;;5054297;28;20439;-71
2022/04/23 13:34:34;;;;;;;29.77;26.77;;;;;;;;;;5054367;28;20472;-70
2022/04/23 13:37:02;;;;;;;29.47;26.43;;;;;;;;;;5054123;28;20834;-70
2022/04/23 13:39:28;;;;;;;30.00;26.90;;;;;;;;;;5054254;28;20543;-69
2022/04/23 13:41:54;;;;;;;31.00;27.77;;;;;;;;;;5053967;28;20482;-72
2022/04/23 13:44:20;;;;;;;28.93;26.03;;;;;;;;;;5054025;28;20402;-70
2022/04/23 13:46:49;;;;;;;32.00;26.23;;;;;;;;;;5053912;28;20969;-70
2022/04/23 13:49:15;;;;;;;30.30;26.97;;;;;;;;;;5054204;28;20453;-71
2022/04/23 13:51:41;;;;;;;29.23;26.23;;;;;;;;;;5054184;28;20459;-71
2022/04/23 13:54:07;;;;;;;30.40;26.27;;;;;;;;;;5053824;28;20414;-71
2022/04/23 13:56:33;;;;;;;30.30;27.00;;;;;;;;;;5052147;28;20437;-71
2022/04/23 13:58:59;;;;;;;29.23;26.00;;;;;;;;;;5053737;28;20415;-71
2022/04/23 14:01:25;;;;;;;27.53;24.63;;;;;;;;;;5053720;28;20415;-70
2022/04/23 14:12:13;;;;;;;28.67;25.77;;;;;;;;;;5053587;28;20461;-71
2022/04/23 14:14:39;;;;;;;28.60;24.80;;;;;;;;;;5053582;28;20743;-73
2022/04/23 14:17:06;;;;;;;26.47;23.77;;;;;;;;;;5053547;28;20420;-72
2022/04/23 14:19:32;;;;;;;28.00;25.27;;;;;;;;;;5053416;28;20921;-71
2022/04/23 14:21:58;;;;;;;26.90;24.30;;;;;;;;;;5053313;28;20416;-70
2022/04/23 14:24:24;;;;;;;26.73;23.83;;;;;;;;;;5053714;28;20399;-69
2022/04/23 14:26:51;;;;;;;27.00;24.17;;;;;;;;;;5053423;28;20833;-70
2022/04/23 14:29:16;;;;;;;27.20;24.27;;;;;;;;;;5053293;28;20403;-70
2022/04/23 14:31:43;;;;;;;25.60;23.03;;;;;;;;;;5053345;28;20778;-71
2022/04/23 14:34:08;;;;;;;25.17;22.77;;;;;;;;;;5053390;28;20913;-69
2022/04/23 14:36:34;;;;;;;29.27;22.77;;;;;;;;;;5053246;28;20502;-71
2022/04/23 14:39:01;;;;;;;25.37;22.67;;;;;;;;;;5053194;28;20409;-72
2022/04/23 14:41:28;;;;;;;25.33;22.70;;;;;;;;;;5053071;28;20915;-70
2022/04/23 14:43:54;;;;;;;25.00;22.50;;;;;;;;;;5053474;28;20410;-68
2022/04/23 14:46:20;;;;;;;25.33;22.63;;;;;;;;;;5053133;28;20956;-69
2022/04/23 14:48:46;;;;;;;24.20;21.87;;;;;;;;;;5053211;28;20405;-68
2022/04/23 14:53:57;;;;;;;24.97;22.50;;;;;;;;;;5053148;28;20423;-69
2022/04/23 14:56:23;;;;;;;25.00;22.70;;;;;;;;;;5053146;28;20962;-69
2022/04/23 14:58:49;;;;;;;24.43;22.00;;;;;;;;;;5052983;28;20713;-69
2022/04/23 15:01:15;;;;;;;24.60;21.97;;;;;;;;;;5052930;28;20469;-70
2022/04/23 15:03:43;;;;;;;25.17;22.67;;;;;;;;;;5053090;28;20919;-69
2022/04/23 15:06:10;;;;;;;24.90;22.23;;;;;;;;;;5052964;28;20408;-69
2022/04/23 15:08:36;;;;;;;22.37;20.23;;;;;;;;;;5054667;28;20417;-69